createdAt,value
2023-03-21T00:01:04.169Z,99538.56
2023-03-21T00:03:34.914Z,99528.34
2023-03-21T00:06:11.944Z,99525.28
2023-03-21T00:08:40.634Z,99525.13
2023-03-21T00:11:10.239Z,99519.09
2023-03-21T00:13:43.356Z,99524.22
2023-03-21T00:16:21.815Z,99515.56
2023-03-21T00:18:59.490Z,99519.28
2023-03-21T00:22:05.527Z,99518.94
2023-03-21T00:24:19.970Z,99516.63
2023-03-21T00:26:47.526Z,99522.81
2023-03-21T00:29:14.993Z,99526.38
2023-03-21T00:31:45.007Z,99515.41
2023-03-21T00:36:41.134Z,99509.81
2023-03-21T00:39:09.552Z,99500.53
2023-03-21T00:41:44.318Z,99501.88
2023-03-21T00:44:15.675Z,99496.63
2023-03-21T00:46:54.514Z,99493.72
2023-03-21T00:49:51.092Z,99482.41
2023-03-21T00:52:27.572Z,99481.94
2023-03-21T00:55:02.318Z,99480.69
2023-03-21T00:57:38.537Z,99481.44
2023-03-21T01:00:10.704Z,99474.06
2023-03-21T01:02:43.420Z,99472.31
2023-03-21T01:05:12.635Z,99465.59
2023-03-21T01:07:40.191Z,99470.16
2023-03-21T01:10:08.238Z,99466.38
2023-03-21T01:12:35.808Z,99462.84
2023-03-21T01:15:04.204Z,99468.34
2023-03-21T01:17:31.667Z,99457.88
2023-03-21T01:19:59.174Z,99446.53
2023-03-21T01:22:26.712Z,99449.47
2023-03-21T01:25:00.624Z,99449.81
2023-03-21T01:27:33.412Z,99442.56
2023-03-21T01:30:01.029Z,99450.88
2023-03-21T01:32:28.516Z,99447.19
2023-03-21T01:34:56.225Z,99448.13
2023-03-21T01:37:26.327Z,99440.88
2023-03-21T01:39:53.955Z,99435.81
2023-03-21T01:42:21.465Z,99428.09
2023-03-21T01:45:01.498Z,99439.66
2023-03-21T01:47:37.526Z,99429.00
2023-03-21T01:50:17.204Z,99431.34
2023-03-21T01:52:54.979Z,99427.31
2023-03-21T01:55:34.708Z,99424.69
2023-03-21T01:58:14.150Z,99422.53
2023-03-21T02:00:50.229Z,99419.41
2023-03-21T02:03:50.571Z,99418.94
2023-03-21T02:06:51.274Z,99420.78
2023-03-21T02:09:34.951Z,99424.03
2023-03-21T02:12:04.168Z,99419.69
2023-03-21T02:14:36.625Z,99408.19
2023-03-21T02:18:02.017Z,99405.28
2023-03-21T02:21:18.691Z,99405.09
2023-03-21T02:24:15.525Z,99409.28
2023-03-21T02:27:11.888Z,99409.88
2023-03-21T02:30:01.708Z,99411.09
2023-03-21T02:33:02.990Z,99408.63
2023-03-21T02:36:13.617Z,99415.56
2023-03-21T02:39:07.981Z,99406.47
2023-03-21T02:42:07.912Z,99412.81
2023-03-21T02:44:43.364Z,99411.31
2023-03-21T02:47:36.950Z,99410.84
2023-03-21T02:50:30.820Z,99407.13
2023-03-21T02:52:59.554Z,99412.81
2023-03-21T02:55:33.209Z,99414.06
2023-03-21T02:58:12.732Z,99411.16
2023-03-21T03:00:47.443Z,99409.91
2023-03-21T03:03:34.000Z,99417.16
2023-03-21T03:06:09.876Z,99415.13
2023-03-21T03:09:16.037Z,99414.53
2023-03-21T03:11:45.552Z,99425.00
2023-03-21T03:15:00.184Z,99431.03
2023-03-21T03:18:22.517Z,99426.94
2023-03-21T03:21:17.617Z,99428.22
2023-03-21T03:23:55.282Z,99428.69
2023-03-21T03:26:55.446Z,99431.16
2023-03-21T03:29:26.720Z,99428.34
2023-03-21T03:32:09.493Z,99436.75
2023-03-21T03:34:49.701Z,99435.81
2023-03-21T03:37:30.983Z,99426.44
2023-03-21T03:40:10.947Z,99422.41
2023-03-21T03:42:47.427Z,99426.06
2023-03-21T03:45:33.539Z,99434.69
2023-03-21T03:48:31.431Z,99424.34
2023-03-21T03:51:08.015Z,99415.97
2023-03-21T03:54:23.563Z,99417.50
2023-03-21T03:56:52.306Z,99426.31
2023-03-21T03:59:22.038Z,99423.81
2023-03-21T04:02:09.817Z,99432.34
2023-03-21T04:04:39.049Z,99424.66
2023-03-21T04:07:07.785Z,99410.94
2023-03-21T04:09:44.213Z,99414.09
2023-03-21T04:12:15.607Z,99422.06
2023-03-21T04:14:57.082Z,99416.72
2023-03-21T04:17:29.481Z,99416.56
2023-03-21T04:20:05.415Z,99426.66
2023-03-21T04:22:39.855Z,99427.69
2023-03-21T04:25:08.588Z,99442.25
2023-03-21T04:27:36.446Z,99436.75
2023-03-21T04:30:36.281Z,99436.66
2023-03-21T04:33:09.557Z,99439.22
2023-03-21T04:35:38.332Z,99453.31
2023-03-21T04:38:07.601Z,99446.88
2023-03-21T04:40:37.801Z,99449.97
2023-03-21T04:43:08.062Z,99447.34
2023-03-21T04:45:40.621Z,99451.13
2023-03-21T04:48:33.112Z,99461.06
2023-03-21T04:51:01.890Z,99456.94
2023-03-21T04:53:29.701Z,99459.81
2023-03-21T04:55:57.613Z,99458.88
2023-03-21T04:58:26.719Z,99458.69
2023-03-21T05:00:55.443Z,99465.81
2023-03-21T05:03:23.467Z,99472.75
2023-03-21T05:05:52.613Z,99468.38
2023-03-21T05:08:20.559Z,99468.84
2023-03-21T05:10:48.003Z,99465.56
2023-03-21T05:13:15.837Z,99463.78
2023-03-21T05:15:43.392Z,99463.22
2023-03-21T05:18:11.174Z,99463.44
2023-03-21T05:20:54.131Z,99469.91
2023-03-21T05:23:23.306Z,99465.13
2023-03-21T05:25:51.430Z,99458.06
2023-03-21T05:28:40.077Z,99463.44
2023-03-21T05:31:08.981Z,99461.59
2023-03-21T05:33:36.916Z,99464.72
2023-03-21T05:36:04.732Z,99466.19
2023-03-21T05:38:33.220Z,99472.09
2023-03-21T05:41:01.246Z,99465.81
2023-03-21T05:43:29.499Z,99457.50
2023-03-21T05:45:59.209Z,99466.53
2023-03-21T05:48:30.146Z,99457.44
2023-03-21T05:51:29.763Z,99457.59
2023-03-21T05:53:57.343Z,99460.25
2023-03-21T05:56:24.881Z,99466.72
2023-03-21T05:58:57.346Z,99465.50
2023-03-21T06:01:25.852Z,99462.31
2023-03-21T06:04:09.494Z,99465.06
2023-03-21T06:06:37.429Z,99466.78
2023-03-21T06:09:06.635Z,99470.03
2023-03-21T06:11:37.710Z,99471.88
2023-03-21T06:14:22.253Z,99469.06
2023-03-21T06:17:06.796Z,99465.22
2023-03-21T06:19:38.361Z,99470.56
2023-03-21T06:22:13.132Z,99464.56
2023-03-21T06:24:42.065Z,99472.88
2023-03-21T06:27:09.598Z,99472.72
2023-03-21T06:29:53.333Z,99473.75
2023-03-21T06:32:23.531Z,99460.41
2023-03-21T06:34:56.255Z,99465.53
2023-03-21T06:37:23.744Z,99459.13
2023-03-21T06:39:51.610Z,99466.56
2023-03-21T06:42:21.673Z,99456.34
2023-03-21T06:44:49.250Z,99470.84
2023-03-21T06:47:17.519Z,99466.03
2023-03-21T06:49:46.760Z,99463.84
2023-03-21T06:52:14.396Z,99460.25
2023-03-21T06:54:42.767Z,99460.19
2023-03-21T06:57:13.568Z,99463.00
2023-03-21T06:59:42.045Z,99459.38
2023-03-21T07:02:13.741Z,99451.66
2023-03-21T07:04:47.333Z,99463.78
2023-03-21T07:07:19.719Z,99469.56
2023-03-21T07:09:47.528Z,99463.53
2023-03-21T07:12:14.976Z,99475.09
2023-03-21T07:15:12.358Z,99475.22
2023-03-21T07:17:41.428Z,99479.34
2023-03-21T07:20:09.909Z,99486.47
2023-03-21T07:22:37.459Z,99484.78
2023-03-21T07:25:07.929Z,99484.13
2023-03-21T07:27:41.272Z,99479.94
2023-03-21T07:30:11.127Z,99482.34
2023-03-21T07:32:39.242Z,99485.50
2023-03-21T07:35:15.354Z,99477.50
2023-03-21T07:37:43.294Z,99476.09
2023-03-21T07:40:13.840Z,99477.22
2023-03-21T07:42:42.273Z,99471.34
2023-03-21T07:45:16.508Z,99477.75
2023-03-21T07:47:46.037Z,99478.66
2023-03-21T07:50:14.416Z,99471.72
2023-03-21T07:52:42.234Z,99476.31
2023-03-21T07:55:10.528Z,99483.16
2023-03-21T07:57:38.224Z,99484.41
2023-03-21T08:00:07.246Z,99485.91
2023-03-21T08:02:58.895Z,99481.41
2023-03-21T08:05:38.406Z,99473.94
2023-03-21T08:08:07.472Z,99466.44
2023-03-21T08:10:35.972Z,99465.59
2023-03-21T08:13:04.237Z,99474.56
2023-03-21T08:15:33.153Z,99468.88
2023-03-21T08:18:01.500Z,99464.88
2023-03-21T08:20:29.343Z,99465.84
2023-03-21T08:22:56.829Z,99461.63
2023-03-21T08:25:24.548Z,99462.78
2023-03-21T08:27:52.467Z,99464.00
2023-03-21T08:30:24.198Z,99457.13
2023-03-21T08:32:52.228Z,99461.53
2023-03-21T08:35:21.186Z,99462.78
2023-03-21T08:37:48.842Z,99459.53
2023-03-21T08:40:18.723Z,99459.84
2023-03-21T08:42:47.171Z,99453.69
2023-03-21T08:45:18.553Z,99450.97
2023-03-21T08:47:47.255Z,99458.63
2023-03-21T08:50:20.852Z,99465.06
2023-03-21T08:52:49.371Z,99462.75
2023-03-21T08:55:18.668Z,99463.69
2023-03-21T08:57:47.024Z,99461.78
2023-03-21T09:00:18.213Z,99452.28
2023-03-21T09:02:48.568Z,99445.69
2023-03-21T09:05:17.032Z,99442.88
2023-03-21T09:07:45.887Z,99436.56
2023-03-21T09:10:21.093Z,99436.41
2023-03-21T09:12:51.768Z,99439.69
2023-03-21T09:15:22.025Z,99434.41
2023-03-21T09:17:53.201Z,99431.00
2023-03-21T09:20:30.012Z,99427.84
2023-03-21T09:22:58.343Z,99427.53
2023-03-21T09:25:29.580Z,99426.16
2023-03-21T09:28:02.465Z,99429.56
2023-03-21T09:30:30.218Z,99432.34
2023-03-21T09:32:59.317Z,99422.06
2023-03-21T09:35:28.359Z,99426.41
2023-03-21T09:37:59.507Z,99421.88
2023-03-21T09:41:01.183Z,99423.41
2023-03-21T09:43:59.653Z,99423.66
2023-03-21T09:46:51.887Z,99423.44
2023-03-21T09:50:14.647Z,99425.31
2023-03-21T09:52:56.878Z,99431.38
2023-03-21T09:55:35.130Z,99429.56
2023-03-21T09:58:16.166Z,99422.31
2023-03-21T10:00:49.462Z,99421.47
2023-03-21T10:03:24.496Z,99423.91
2023-03-21T10:06:01.263Z,99419.44
2023-03-21T10:08:36.635Z,99423.38
2023-03-21T10:11:27.407Z,99417.22
2023-03-21T10:14:05.706Z,99405.88
2023-03-21T10:16:47.145Z,99406.28
2023-03-21T10:19:20.973Z,99413.78
2023-03-21T10:22:06.171Z,99404.97
2023-03-21T10:24:35.490Z,99395.38
2023-03-21T10:27:05.054Z,99392.69
2023-03-21T10:29:44.776Z,99399.34
2023-03-21T10:32:18.671Z,99393.97
2023-03-21T10:37:25.887Z,99392.28
2023-03-21T10:39:56.058Z,99391.00
2023-03-21T10:42:33.887Z,99385.06
2023-03-21T10:45:01.848Z,99378.34
2023-03-21T10:47:34.169Z,99367.50
2023-03-21T10:50:14.237Z,99368.22
2023-03-21T10:52:51.975Z,99363.59
2023-03-21T10:55:33.936Z,99364.38
2023-03-21T10:58:18.972Z,99353.09
2023-03-21T11:00:49.836Z,99356.47
2023-03-21T11:03:32.790Z,99344.59
2023-03-21T11:06:36.648Z,99348.50
2023-03-21T11:09:21.686Z,99344.84
2023-03-21T11:12:09.826Z,99344.44
2023-03-21T11:14:43.588Z,99338.09
2023-03-21T11:17:27.727Z,99338.84
2023-03-21T11:20:00.591Z,99331.03
2023-03-21T11:22:37.412Z,99322.72
2023-03-21T11:25:12.118Z,99315.63
2023-03-21T11:27:52.904Z,99304.81
2023-03-21T11:30:28.701Z,99302.28
2023-03-21T11:32:59.884Z,99291.03
2023-03-21T11:35:37.088Z,99290.81
2023-03-21T11:38:07.468Z,99280.59
2023-03-21T11:40:37.166Z,99279.22
2023-03-21T11:43:31.986Z,99269.81
2023-03-21T11:46:06.547Z,99263.41
2023-03-21T11:48:48.914Z,99261.47
2023-03-21T11:51:31.025Z,99260.78
2023-03-21T11:54:15.924Z,99268.31
2023-03-21T11:56:49.487Z,99264.00
2023-03-21T11:59:17.332Z,99264.63
2023-03-21T12:02:40.116Z,99262.13
2023-03-21T12:05:27.839Z,99257.66
2023-03-21T12:08:10.204Z,99257.13
2023-03-21T12:10:46.311Z,99255.88
2023-03-21T12:13:50.426Z,99247.63
2023-03-21T12:16:35.098Z,99243.84
2023-03-21T12:19:41.810Z,99251.22
2023-03-21T12:22:58.032Z,99253.44
2023-03-21T12:25:54.747Z,99232.75
2023-03-21T12:28:41.462Z,99236.66
2023-03-21T12:31:44.789Z,99226.75
2023-03-21T12:35:06.013Z,99222.81
2023-03-21T12:38:17.445Z,99226.59
2023-03-21T12:41:09.995Z,99216.66
2023-03-21T13:01:12.782Z,99183.34
2023-03-21T13:03:45.586Z,99177.69
2023-03-21T13:06:18.552Z,99178.91
2023-03-21T13:09:03.590Z,99173.25
2023-03-21T13:11:32.726Z,99175.91
2023-03-21T13:14:06.371Z,99173.19
2023-03-21T13:17:06.712Z,99173.91
2023-03-21T13:19:38.843Z,99177.22
2023-03-21T13:22:30.309Z,99169.53
2023-03-21T13:25:25.560Z,99175.25
2023-03-21T13:28:01.182Z,99167.34
2023-03-21T13:30:32.478Z,99161.53
2023-03-21T13:33:17.248Z,99165.59
2023-03-21T13:35:46.669Z,99155.75
2023-03-21T13:38:26.925Z,99151.16
2023-03-21T13:41:07.684Z,99144.75
2023-03-21T13:43:44.281Z,99154.63
2023-03-21T13:46:26.852Z,99149.00
2023-03-21T13:49:00.151Z,99147.88
2023-03-21T13:51:37.453Z,99146.22
2023-03-21T13:54:18.260Z,99147.34
2023-03-21T13:56:48.959Z,99140.66
2023-03-21T13:59:45.608Z,99137.44
2023-03-21T14:02:22.997Z,99134.41
2023-03-21T14:05:06.855Z,99138.78
2023-03-21T14:07:44.856Z,99131.28
2023-03-21T14:10:43.732Z,99122.78
2023-03-21T14:13:17.931Z,99122.44
2023-03-21T14:15:55.854Z,99121.44
2023-03-21T14:18:47.830Z,99112.31
2023-03-21T14:21:31.340Z,99116.84
2023-03-21T14:24:06.068Z,99113.69
2023-03-21T14:26:46.297Z,99120.72
2023-03-21T14:29:31.959Z,99126.78
2023-03-21T14:32:00.783Z,99118.78
2023-03-21T14:34:31.643Z,99121.75
2023-03-21T14:36:59.494Z,99112.00
2023-03-21T14:39:33.836Z,99110.34
2023-03-21T14:42:06.768Z,99106.91
2023-03-21T14:44:56.777Z,99103.84
2023-03-21T14:47:30.036Z,99109.06
2023-03-21T14:50:01.074Z,99114.03
2023-03-21T14:52:34.271Z,99107.25
2023-03-21T14:55:05.921Z,99104.59
2023-03-21T14:57:34.024Z,99103.81
2023-03-21T15:00:16.027Z,99100.13
2023-03-21T15:02:47.306Z,99098.13
2023-03-21T15:05:38.577Z,99100.59
2023-03-21T15:08:12.835Z,99107.41
2023-03-21T15:10:41.506Z,99120.25
2023-03-21T15:13:32.065Z,99115.34
2023-03-21T15:16:00.954Z,99120.47
2023-03-21T15:18:34.911Z,99111.34
2023-03-21T15:21:19.728Z,99109.88
2023-03-21T15:23:50.630Z,99112.78
2023-03-21T15:26:22.749Z,99105.88
2023-03-21T15:28:58.336Z,99109.41
2023-03-21T15:31:34.468Z,99113.72
2023-03-21T15:34:02.348Z,99114.00
2023-03-21T15:36:40.296Z,99107.84
2023-03-21T15:39:16.372Z,99101.28
2023-03-21T15:42:03.038Z,99099.59
2023-03-21T15:44:35.154Z,99099.03
2023-03-21T15:47:03.057Z,99098.63
2023-03-21T15:49:38.237Z,99098.97
2023-03-21T15:52:15.784Z,99101.38
2023-03-21T15:54:50.982Z,99107.84
2023-03-21T15:57:32.869Z,99104.69
2023-03-21T16:00:21.615Z,99103.41
2023-03-21T16:02:59.314Z,99108.50
2023-03-21T16:05:30.812Z,99106.25
2023-03-21T16:08:21.655Z,99108.94
2023-03-21T16:10:49.567Z,99104.94
2023-03-21T16:13:17.584Z,99110.50
2023-03-21T16:15:46.997Z,99114.09
2023-03-21T16:18:20.882Z,99124.06
2023-03-21T16:20:50.140Z,99121.00
2023-03-21T16:23:18.010Z,99121.38
2023-03-21T16:25:45.914Z,99117.75
2023-03-21T16:28:16.621Z,99106.56
2023-03-21T16:30:44.844Z,99118.16
2023-03-21T16:33:15.649Z,99121.19
2023-03-21T16:35:43.860Z,99114.31
2023-03-21T16:38:13.892Z,99104.44
2023-03-21T16:40:43.852Z,99100.09
2023-03-21T16:43:12.229Z,99104.63
2023-03-21T16:45:39.952Z,99112.22
2023-03-21T16:48:09.097Z,99112.50
2023-03-21T16:50:57.012Z,99112.53
2023-03-21T16:53:24.732Z,99107.63
2023-03-21T16:55:54.542Z,99108.47
2023-03-21T16:58:23.644Z,99109.03
2023-03-21T17:00:51.085Z,99114.63
2023-03-21T17:03:19.383Z,99111.13
2023-03-21T17:05:48.178Z,99122.81
2023-03-21T17:08:18.786Z,99120.19
2023-03-21T17:10:52.031Z,99120.19
2023-03-21T17:13:21.094Z,99119.81
2023-03-21T17:15:49.481Z,99127.75
2023-03-21T17:18:17.450Z,99126.00
2023-03-21T17:20:47.861Z,99133.13
2023-03-21T17:23:15.892Z,99126.28
2023-03-21T17:25:46.208Z,99127.75
2023-03-21T17:28:15.277Z,99127.53
2023-03-21T17:30:43.275Z,99135.63
2023-03-21T17:33:11.075Z,99136.59
2023-03-21T17:35:41.997Z,99135.78
2023-03-21T17:38:16.848Z,99138.19
2023-03-21T17:40:49.632Z,99143.53
2023-03-21T17:43:23.561Z,99151.19
2023-03-21T17:45:54.593Z,99153.41
2023-03-21T17:48:23.582Z,99155.47
2023-03-21T17:50:56.679Z,99158.03
2023-03-21T17:53:26.960Z,99147.63
2023-03-21T17:55:54.572Z,99148.94
2023-03-21T17:58:22.236Z,99154.22
2023-03-21T18:00:51.048Z,99157.91
2023-03-21T18:03:19.774Z,99156.38
2023-03-21T18:06:07.904Z,99149.06
2023-03-21T18:08:56.288Z,99149.41
2023-03-21T18:11:25.809Z,99144.81
2023-03-21T18:14:06.483Z,99138.25
2023-03-21T18:16:40.870Z,99151.00
2023-03-21T18:19:11.366Z,99148.25
2023-03-21T18:21:46.927Z,99146.38
2023-03-21T18:24:15.858Z,99152.44
2023-03-21T18:26:45.976Z,99146.53
2023-03-21T18:30:17.539Z,99143.22
2023-03-21T18:32:08.210Z,99135.22
2023-03-21T18:34:39.001Z,99135.44
2023-03-21T18:37:08.572Z,99140.00
2023-03-21T18:39:38.170Z,99138.50
2023-03-21T18:42:07.081Z,99139.69
2023-03-21T18:44:45.599Z,99138.41
2023-03-21T18:47:14.596Z,99141.00
2023-03-21T18:50:13.194Z,99151.72
2023-03-21T18:52:32.029Z,99153.31
2023-03-21T18:55:00.597Z,99143.38
2023-03-21T18:57:48.700Z,99155.03
2023-03-21T19:00:19.938Z,99151.97
2023-03-21T19:03:04.012Z,99153.84
2023-03-21T19:05:42.335Z,99171.16
2023-03-21T19:08:12.460Z,99160.38
2023-03-21T19:10:43.044Z,99168.03
2023-03-21T19:13:12.395Z,99170.16
2023-03-21T19:15:41.326Z,99169.22
2023-03-21T19:18:37.903Z,99175.91
2023-03-21T19:21:06.652Z,99171.41
2023-03-21T19:24:03.814Z,99164.91
2023-03-21T19:26:43.168Z,99161.84
2023-03-21T19:29:31.237Z,99152.06
2023-03-21T19:31:58.912Z,99153.69
2023-03-21T19:34:28.252Z,99158.69
2023-03-21T19:36:57.802Z,99157.19
2023-03-21T19:39:25.736Z,99161.94
2023-03-21T19:42:09.003Z,99160.34
2023-03-21T19:44:43.051Z,99163.56
2023-03-21T19:47:11.363Z,99158.97
2023-03-21T19:50:20.884Z,99171.56
2023-03-21T19:52:31.996Z,99177.03
2023-03-21T19:54:59.636Z,99187.38
2023-03-21T19:57:28.669Z,99194.09
2023-03-21T19:59:59.368Z,99195.91
2023-03-21T20:02:37.502Z,99198.22
2023-03-21T20:05:09.726Z,99198.16
2023-03-21T20:07:57.551Z,99209.06
2023-03-21T20:10:46.055Z,99206.25
2023-03-21T20:13:14.248Z,99211.59
2023-03-21T20:15:48.082Z,99209.22
2023-03-21T20:18:16.418Z,99204.63
2023-03-21T20:20:45.274Z,99197.44
2023-03-21T20:23:36.358Z,99205.16
2023-03-21T20:26:10.606Z,99207.94
2023-03-21T20:28:54.894Z,99210.81
2023-03-21T20:31:28.455Z,99212.56
2023-03-21T20:33:57.503Z,99214.19
2023-03-21T20:36:43.086Z,99210.78
2023-03-21T20:39:14.312Z,99208.13
2023-03-21T20:41:42.683Z,99209.41
2023-03-21T20:47:00.526Z,99213.34
2023-03-21T20:49:28.699Z,99204.91
2023-03-21T20:54:45.785Z,99187.56
2023-03-21T20:57:14.597Z,99178.25
2023-03-21T20:59:43.848Z,99173.47
2023-03-21T21:02:12.616Z,99175.91
2023-03-21T21:05:00.007Z,99168.53
2023-03-21T21:07:29.857Z,99177.19
2023-03-21T21:09:57.903Z,99174.00
2023-03-21T21:12:27.776Z,99167.59
2023-03-21T21:15:02.626Z,99178.56
2023-03-21T21:17:57.895Z,99185.69
2023-03-21T21:20:20.506Z,99191.59
2023-03-21T21:22:59.734Z,99191.72
2023-03-21T21:25:30.587Z,99200.81
2023-03-21T21:27:58.521Z,99217.66
2023-03-21T21:30:29.537Z,99216.34
2023-03-21T21:33:00.827Z,99232.41
2023-03-21T21:35:30.015Z,99232.09
2023-03-21T21:37:57.484Z,99219.13
2023-03-21T21:40:25.716Z,99213.31
2023-03-21T21:42:53.251Z,99216.50
2023-03-21T21:45:21.487Z,99213.56
2023-03-21T21:47:48.984Z,99206.53
2023-03-21T21:50:16.538Z,99207.75
2023-03-21T21:52:52.581Z,99201.19
2023-03-21T21:55:21.676Z,99208.41
2023-03-21T21:57:52.923Z,99207.72
2023-03-21T22:00:23.595Z,99208.84
2023-03-21T22:02:53.695Z,99211.38
2023-03-21T22:05:21.738Z,99213.34
2023-03-21T22:07:54.580Z,99209.28
2023-03-21T22:10:27.619Z,99223.53
2023-03-21T22:12:55.976Z,99227.03
2023-03-21T22:15:24.023Z,99222.75
2023-03-21T22:17:53.308Z,99225.81
2023-03-21T22:20:23.172Z,99212.66
2023-03-21T22:22:51.037Z,99219.13
2023-03-21T22:25:21.770Z,99209.94
2023-03-21T22:27:50.871Z,99217.28
2023-03-21T22:30:21.819Z,99219.47
2023-03-21T22:33:06.192Z,99226.47
2023-03-21T22:35:38.058Z,99221.16
2023-03-21T22:38:05.871Z,99220.88
2023-03-21T22:40:33.403Z,99223.69
2023-03-21T22:43:00.926Z,99219.06
2023-03-21T22:45:28.527Z,99211.41
2023-03-21T22:47:56.309Z,99220.19
2023-03-21T22:50:23.790Z,99226.19
2023-03-21T22:52:51.304Z,99221.28
2023-03-21T22:55:19.324Z,99221.09
2023-03-21T22:57:46.926Z,99221.97
2023-03-21T23:00:16.261Z,99226.38
2023-03-21T23:02:43.823Z,99224.63
2023-03-21T23:05:12.828Z,99225.47
2023-03-21T23:07:40.598Z,99236.19
2023-03-21T23:10:12.120Z,99228.97
2023-03-21T23:12:39.829Z,99220.78
2023-03-21T23:15:09.359Z,99222.97
2023-03-21T23:17:37.018Z,99221.63
2023-03-21T23:20:07.853Z,99225.25
2023-03-21T23:22:36.209Z,99231.88
2023-03-21T23:25:04.052Z,99235.72
2023-03-21T23:27:31.654Z,99229.47
2023-03-21T23:29:59.155Z,99235.38
2023-03-21T23:32:26.730Z,99230.13
2023-03-21T23:34:56.064Z,99228.59
2023-03-21T23:37:25.175Z,99221.78
2023-03-21T23:39:55.216Z,99220.34
2023-03-21T23:42:25.477Z,99209.97
2023-03-21T23:44:53.013Z,99209.38
2023-03-21T23:47:20.824Z,99211.31
2023-03-21T23:49:50.162Z,99211.75
2023-03-21T23:52:17.704Z,99206.09
2023-03-21T23:54:45.307Z,99202.13
2023-03-21T23:57:12.775Z,99211.09
2023-03-21T23:59:40.263Z,99197.31
